Time;durP1;ratioP1;P1;durP2;ratioP2;P2;SDS_P1;SDS_P2;PMS_P1;PMS_P2;Temp;Humidity;BMP_temperature;BMP_pressure;BME280_temperature;BME280_humidity;BME280_pressure;Samples;Min_cycle;Max_cycle;Signal;HPM_P1;HPM_P2
2022/03/06 00:01:41;;;;;;;2.58;1.10;;;23.10;52.20;;;;;;4971335;28;20198;-52
2022/03/06 00:04:12;;;;;;;2.03;1.08;;;23.20;52.10;;;;;;4971740;28;20245;-53
2022/03/06 00:06:42;;;;;;;1.50;0.80;;;23.20;52.10;;;;;;4984415;28;20650;-56
2022/03/06 00:09:13;;;;;;;1.05;0.88;;;23.30;52.20;;;;;;4992410;28;20229;-53
2022/03/06 00:11:44;;;;;;;1.20;0.85;;;23.30;52.20;;;;;;4992594;28;20268;-56
2022/03/06 00:14:15;;;;;;;2.10;1.02;;;23.40;52.20;;;;;;4976427;28;20198;-52
2022/03/06 00:16:47;;;;;;;1.50;0.88;;;23.40;52.20;;;;;;4969438;28;20198;-60
2022/03/06 00:19:18;;;;;;;3.05;1.05;;;23.40;52.30;;;;;;4972710;28;20209;-53
2022/03/06 00:21:49;;;;;;;1.00;0.88;;;23.50;52.30;;;;;;4972382;28;20587;-58
2022/03/06 00:24:19;;;;;;;1.58;0.90;;;23.50;52.20;;;;;;4972099;28;20859;-56
2022/03/06 00:27:13;;;;;;;3.42;1.15;;;23.60;52.20;;;;;;4972203;28;20194;-57
2022/03/06 00:29:44;;;;;;;2.75;0.88;;;23.60;52.10;;;;;;4972311;28;20198;-58
2022/03/06 00:32:16;;;;;;;1.77;0.98;;;23.60;52.00;;;;;;4972527;28;20249;-60
2022/03/06 00:34:48;;;;;;;2.83;0.90;;;23.70;51.50;;;;;;4972264;28;20202;-59
2022/03/06 00:37:36;;;;;;;2.50;0.90;;;23.70;51.00;;;;;;4971745;28;20225;-58
2022/03/06 00:40:08;;;;;;;2.15;0.70;;;23.80;50.60;;;;;;4972005;28;20212;-58
2022/03/06 00:42:39;;;;;;;3.20;0.80;;;23.90;50.40;;;;;;4972177;28;20358;-59
2022/03/06 00:47:55;;;;;;;2.25;0.80;;;24.00;50.10;;;;;;4913222;29;20326;-61
2022/03/06 00:50:26;;;;;;;1.45;0.60;;;24.10;50.30;;;;;;4910621;29;20196;-59
2022/03/06 00:52:57;;;;;;;1.38;0.80;;;24.20;50.40;;;;;;4913579;29;20224;-59
2022/03/06 00:55:27;;;;;;;1.65;0.88;;;24.20;50.70;;;;;;4912211;29;20228;-60
2022/03/06 00:58:05;;;;;;;2.78;0.82;;;24.30;51.10;;;;;;4910998;29;20204;-59
2022/03/06 01:00:37;;;;;;;2.25;0.80;;;24.30;51.20;;;;;;4911192;29;20207;-59
2022/03/06 01:03:12;;;;;;;1.20;0.80;;;24.40;51.20;;;;;;4912732;29;20216;-58
2022/03/06 01:05:46;;;;;;;3.10;0.88;;;24.40;51.20;;;;;;4913067;29;20195;-57
2022/03/06 01:08:17;;;;;;;2.38;0.70;;;24.50;51.50;;;;;;4912193;29;20220;-57
2022/03/06 01:10:49;;;;;;;2.03;1.05;;;24.50;51.10;;;;;;4911469;29;20604;-58
2022/03/06 01:13:20;;;;;;;1.40;0.80;;;24.50;51.10;;;;;;4911439;29;20750;-59
2022/03/06 01:15:51;;;;;;;1.13;0.77;;;24.60;51.10;;;;;;4912087;29;20216;-58
2022/03/06 01:18:24;;;;;;;1.40;0.80;;;24.60;51.00;;;;;;4912501;29;20690;-59
2022/03/06 01:20:55;;;;;;;2.20;0.70;;;24.70;51.10;;;;;;4912466;29;20210;-58
2022/03/06 01:23:25;;;;;;;1.65;0.70;;;24.70;51.10;;;;;;4912446;29;20216;-59
2022/03/06 01:26:13;;;;;;;2.15;0.98;;;24.70;51.00;;;;;;4913163;29;20196;-59
2022/03/06 01:28:44;;;;;;;2.35;0.90;;;24.80;51.00;;;;;;4912316;29;20224;-58
2022/03/06 01:31:15;;;;;;;1.33;0.70;;;24.80;50.90;;;;;;4910278;29;20196;-56
2022/03/06 01:33:47;;;;;;;1.15;0.75;;;24.80;50.80;;;;;;4911698;29;20603;-60
2022/03/06 01:36:18;;;;;;;2.70;1.02;;;24.80;50.90;;;;;;4910294;29;20196;-60
2022/03/06 01:38:49;;;;;;;1.58;0.73;;;24.90;50.90;;;;;;4912000;29;20671;-56
2022/03/06 01:41:19;;;;;;;1.92;0.80;;;24.90;50.90;;;;;;4911789;29;20669;-57
2022/03/06 01:43:50;;;;;;;2.40;0.65;;;24.90;51.10;;;;;;4911409;29;20252;-55
2022/03/06 01:46:21;;;;;;;1.58;0.65;;;24.90;50.30;;;;;;4944660;23;20234;-53
2022/03/06 01:48:53;;;;;;;2.20;0.70;;;25.00;50.30;;;;;;4970054;28;20296;-52
2022/03/06 01:51:24;;;;;;;3.80;0.60;;;25.10;50.60;;;;;;4968976;28;20190;-51
2022/03/06 01:53:54;;;;;;;1.90;0.70;;;25.00;50.50;;;;;;4969648;28;20280;-48
2022/03/06 01:56:25;;;;;;;1.20;0.73;;;25.10;50.50;;;;;;4968895;28;20261;-50
2022/03/06 01:58:57;;;;;;;1.38;0.70;;;25.10;50.20;;;;;;4968414;28;20190;-54
2022/03/06 02:01:27;;;;;;;1.58;0.88;;;25.20;49.90;;;;;;4969339;28;20198;-54
2022/03/06 02:04:00;;;;;;;2.60;0.60;;;25.20;49.40;;;;;;4969347;28;20219;-53
2022/03/06 02:06:31;;;;;;;1.20;0.60;;;25.30;49.20;;;;;;4969487;28;20714;-52
2022/03/06 02:09:01;;;;;;;2.47;0.88;;;25.30;49.20;;;;;;4968959;28;20228;-49
2022/03/06 02:11:33;;;;;;;1.42;0.60;;;25.40;49.40;;;;;;4968924;28;20249;-53
2022/03/06 02:14:04;;;;;;;1.33;0.80;;;25.50;49.40;;;;;;4969422;28;20194;-52
2022/03/06 02:16:35;;;;;;;3.28;0.80;;;25.50;49.40;;;;;;4968902;28;20284;-53
2022/03/06 02:19:08;;;;;;;1.00;0.80;;;25.60;49.60;;;;;;4968647;28;20198;-49
2022/03/06 02:21:40;;;;;;;4.50;0.80;;;25.60;49.50;;;;;;4969998;28;20206;-54
2022/03/06 02:24:11;;;;;;;2.17;0.70;;;25.60;49.50;;;;;;4972398;28;20261;-53
2022/03/06 02:26:42;;;;;;;2.42;1.00;;;25.70;49.60;;;;;;4973028;28;20198;-52
2022/03/06 02:29:13;;;;;;;2.15;0.80;;;25.70;49.60;;;;;;4971705;28;20222;-54
2022/03/06 02:31:44;;;;;;;1.58;0.52;;;25.70;49.70;;;;;;4972569;28;20689;-53
2022/03/06 02:34:14;;;;;;;2.67;0.60;;;25.80;49.80;;;;;;4973204;28;20249;-52
2022/03/06 02:36:47;;;;;;;2.40;0.70;;;25.80;49.80;;;;;;4973459;28;20718;-52
2022/03/06 02:39:18;;;;;;;1.63;0.80;;;25.80;49.80;;;;;;4972786;28;20209;-52
2022/03/06 02:41:48;;;;;;;1.73;0.65;;;25.90;49.90;;;;;;4972869;28;20269;-52
2022/03/06 02:44:19;;;;;;;2.53;0.60;;;25.90;50.00;;;;;;4972437;28;20206;-54
2022/03/06 02:46:50;;;;;;;1.52;0.60;;;25.90;49.90;;;;;;4975121;28;20260;-53
2022/03/06 02:49:21;;;;;;;0.73;0.50;;;25.90;49.70;;;;;;4974371;28;20229;-52
2022/03/06 02:51:56;;;;;;;2.20;0.77;;;25.90;49.60;;;;;;4973803;28;20659;-54
2022/03/06 02:54:27;;;;;;;1.88;0.70;;;26.00;49.60;;;;;;4972851;28;20202;-51
2022/03/06 02:56:58;;;;;;;1.08;0.68;;;26.00;49.60;;;;;;4955662;28;20848;-52
2022/03/06 02:59:28;;;;;;;0.93;0.73;;;26.10;49.50;;;;;;4953208;28;20199;-53
2022/03/06 03:01:59;;;;;;;1.48;0.65;;;26.20;49.50;;;;;;4971033;28;20219;-53
2022/03/06 03:04:30;;;;;;;3.05;0.80;;;26.20;49.40;;;;;;4973683;28;20248;-54
2022/03/06 03:07:02;;;;;;;0.60;0.60;;;26.20;49.40;;;;;;4973892;28;20206;-53
2022/03/06 03:09:33;;;;;;;1.90;0.90;;;26.20;49.20;;;;;;4973862;28;20273;-54
2022/03/06 03:12:04;;;;;;;2.13;0.70;;;26.30;49.30;;;;;;4974073;28;20222;-52
2022/03/06 03:14:35;;;;;;;1.52;0.68;;;26.30;49.20;;;;;;4973633;28;20213;-53
2022/03/06 03:17:09;;;;;;;1.05;0.50;;;26.30;49.20;;;;;;4973527;28;20631;-53
2022/03/06 03:19:40;;;;;;;0.60;0.40;;;26.30;49.00;;;;;;4973368;28;20198;-51
2022/03/06 03:22:13;;;;;;;1.40;0.75;;;26.40;49.20;;;;;;4973481;28;20222;-53
2022/03/06 03:24:43;;;;;;;0.60;0.60;;;26.40;49.10;;;;;;4973612;28;20265;-52
2022/03/06 03:27:14;;;;;;;2.70;0.80;;;26.40;49.00;;;;;;4973621;28;20202;-51
2022/03/06 03:29:44;;;;;;;1.10;0.60;;;26.40;49.00;;;;;;4973233;28;20698;-50
2022/03/06 03:32:15;;;;;;;1.33;0.80;;;26.50;48.90;;;;;;4972293;28;20519;-53
2022/03/06 03:34:46;;;;;;;1.35;0.70;;;26.50;49.00;;;;;;4972976;28;20202;-53
2022/03/06 03:37:18;;;;;;;1.80;0.65;;;26.50;49.10;;;;;;4973021;28;20190;-52
2022/03/06 03:39:50;;;;;;;1.73;0.70;;;26.50;49.00;;;;;;4972818;28;20554;-52
2022/03/06 03:42:21;;;;;;;0.80;0.68;;;26.50;49.00;;;;;;4972654;28;20647;-52
2022/03/06 03:44:51;;;;;;;0.93;0.60;;;26.60;48.90;;;;;;4973130;28;20281;-51
2022/03/06 03:47:22;;;;;;;1.05;0.70;;;26.60;48.80;;;;;;4973297;28;20725;-53
2022/03/06 03:49:53;;;;;;;1.45;0.70;;;26.60;48.80;;;;;;4973056;28;20234;-52
2022/03/06 03:52:25;;;;;;;1.38;0.68;;;26.60;48.70;;;;;;4972877;28;20784;-54
2022/03/06 03:54:56;;;;;;;2.47;1.05;;;26.70;48.70;;;;;;4972694;28;20206;-54
2022/03/06 03:57:26;;;;;;;1.15;0.70;;;26.70;48.70;;;;;;4972798;28;20669;-53
2022/03/06 03:59:57;;;;;;;1.17;0.70;;;26.80;48.70;;;;;;4972630;28;20205;-53
2022/03/06 04:02:27;;;;;;;1.85;0.80;;;26.70;48.40;;;;;;4972130;28;20632;-53
2022/03/06 04:04:58;;;;;;;1.48;0.90;;;26.80;48.40;;;;;;4972553;28;20202;-54
2022/03/06 04:07:30;;;;;;;4.20;0.90;;;26.80;47.90;;;;;;4971466;28;20656;-53
2022/03/06 04:10:01;;;;;;;1.77;0.75;;;26.80;47.80;;;;;;4970016;28;20255;-51
2022/03/06 04:12:32;;;;;;;2.72;0.70;;;26.80;47.80;;;;;;4971966;28;20218;-49
2022/03/06 04:15:02;;;;;;;2.65;0.90;;;26.80;48.00;;;;;;4967156;28;20275;-51
2022/03/06 04:17:33;;;;;;;2.17;0.70;;;26.90;48.10;;;;;;4971656;28;20198;-49
2022/03/06 04:20:06;;;;;;;2.53;1.00;;;26.90;48.10;;;;;;4970577;28;20202;-51
2022/03/06 04:22:39;;;;;;;1.17;0.85;;;26.90;47.90;;;;;;4970868;28;20210;-52
2022/03/06 04:25:10;;;;;;;2.65;0.90;;;26.90;47.90;;;;;;4970226;28;20194;-54
2022/03/06 04:27:40;;;;;;;3.92;1.10;;;26.90;47.80;;;;;;4969978;28;20865;-54
2022/03/06 04:30:12;;;;;;;1.38;0.77;;;26.90;47.70;;;;;;4970094;28;20305;-53
2022/03/06 04:32:43;;;;;;;2.03;0.80;;;27.00;47.70;;;;;;4969962;28;20297;-54
2022/03/06 04:35:14;;;;;;;1.10;0.75;;;27.00;47.50;;;;;;4970834;28;20249;-50
2022/03/06 04:37:46;;;;;;;2.15;0.90;;;27.00;47.60;;;;;;4970702;28;20248;-52
2022/03/06 04:40:17;;;;;;;2.30;0.90;;;27.00;47.60;;;;;;4970716;28;20202;-53
2022/03/06 04:42:48;;;;;;;1.40;0.80;;;27.10;47.70;;;;;;4969944;28;20289;-53
2022/03/06 04:45:18;;;;;;;1.77;0.90;;;27.10;47.70;;;;;;4969089;28;20198;-50
2022/03/06 04:47:49;;;;;;;1.05;0.90;;;27.10;47.70;;;;;;4970492;28;20222;-52
2022/03/06 04:50:19;;;;;;;2.55;1.15;;;27.10;47.60;;;;;;4970135;28;20221;-49
2022/03/06 04:52:52;;;;;;;1.67;0.80;;;27.20;47.60;;;;;;4969967;28;20214;-51
2022/03/06 04:55:22;;;;;;;1.73;1.00;;;27.20;47.60;;;;;;4970408;28;20549;-53
2022/03/06 04:57:53;;;;;;;2.05;0.85;;;27.20;47.30;;;;;;4968994;28;20194;-50
2022/03/06 05:00:24;;;;;;;2.25;0.80;;;27.20;47.30;;;;;;4969961;28;20194;-51
2022/03/06 05:02:55;;;;;;;1.58;0.75;;;27.20;47.10;;;;;;4969840;28;20257;-51
2022/03/06 05:05:26;;;;;;;2.13;0.98;;;27.20;47.10;;;;;;4968929;28;20202;-52
2022/03/06 05:07:58;;;;;;;2.92;0.90;;;27.30;47.10;;;;;;4970105;28;20761;-52
2022/03/06 05:10:29;;;;;;;2.55;0.95;;;27.30;46.80;;;;;;4970316;28;20221;-50
2022/03/06 05:12:59;;;;;;;1.77;0.90;;;27.30;47.20;;;;;;4969997;28;20227;-48
2022/03/06 05:15:30;;;;;;;4.10;0.88;;;27.30;47.10;;;;;;4969433;28;20276;-48
2022/03/06 05:18:01;;;;;;;1.25;0.73;;;27.30;46.80;;;;;;4970121;28;20198;-51
2022/03/06 05:20:31;;;;;;;1.80;0.90;;;27.40;46.80;;;;;;4970689;28;20658;-49
2022/03/06 05:23:04;;;;;;;1.05;0.95;;;27.30;46.60;;;;;;4969053;28;20273;-50
2022/03/06 05:25:35;;;;;;;1.05;0.93;;;27.40;46.70;;;;;;4970317;28;20285;-52
2022/03/06 05:28:05;;;;;;;2.25;1.17;;;27.40;47.00;;;;;;4969444;28;20198;-51
2022/03/06 05:30:36;;;;;;;2.55;1.17;;;27.40;47.10;;;;;;4969970;28;20640;-50
2022/03/06 05:33:07;;;;;;;1.60;1.00;;;27.40;47.70;;;;;;4969512;28;20269;-47
2022/03/06 05:35:38;;;;;;;1.27;0.73;;;27.50;47.10;;;;;;4969638;28;20206;-51
2022/03/06 05:38:10;;;;;;;1.05;0.82;;;27.50;47.10;;;;;;4969962;28;20194;-48
2022/03/06 05:40:41;;;;;;;1.58;0.80;;;27.50;47.00;;;;;;4970278;28;20198;-51
2022/03/06 05:43:11;;;;;;;3.00;0.90;;;27.50;46.70;;;;;;4970259;28;20882;-48
2022/03/06 05:45:42;;;;;;;2.30;1.00;;;27.50;46.80;;;;;;4969281;28;20202;-49
2022/03/06 05:48:13;;;;;;;1.67;0.88;;;27.50;46.80;;;;;;4969791;28;20280;-49
2022/03/06 05:50:44;;;;;;;1.55;0.95;;;27.50;46.70;;;;;;4969117;28;20222;-51
2022/03/06 05:53:16;;;;;;;1.73;0.93;;;27.50;46.70;;;;;;4968706;28;20242;-49
2022/03/06 05:55:47;;;;;;;2.55;1.17;;;27.60;46.70;;;;;;4968226;28;20221;-49
2022/03/06 05:58:18;;;;;;;2.20;0.98;;;27.60;46.50;;;;;;4969685;28;20198;-50
2022/03/06 06:00:48;;;;;;;1.27;0.77;;;27.60;46.40;;;;;;4969661;28;20651;-51
2022/03/06 06:03:19;;;;;;;0.80;0.80;;;27.60;46.50;;;;;;4968836;28;20218;-48
2022/03/06 06:05:49;;;;;;;2.28;0.85;;;27.60;46.40;;;;;;4969924;28;20194;-47
2022/03/06 06:08:22;;;;;;;1.25;0.90;;;27.60;46.50;;;;;;4970665;28;20727;-48
2022/03/06 06:10:52;;;;;;;1.27;1.00;;;27.60;46.40;;;;;;4970336;28;20273;-48
2022/03/06 06:13:23;;;;;;;1.30;0.70;;;27.60;46.40;;;;;;4969313;28;20702;-50
2022/03/06 06:15:55;;;;;;;2.85;0.90;;;27.60;46.40;;;;;;4969230;28;20624;-49
2022/03/06 06:18:27;;;;;;;1.25;0.70;;;27.50;46.40;;;;;;4969174;28;20225;-47
2022/03/06 06:20:57;;;;;;;1.25;0.95;;;27.50;46.60;;;;;;4969078;28;20237;-48
2022/03/06 06:23:30;;;;;;;1.52;1.17;;;27.50;47.00;;;;;;4968919;28;20218;-47
2022/03/06 06:26:00;;;;;;;2.65;1.08;;;27.50;47.20;;;;;;4970605;28;20245;-45
2022/03/06 06:28:31;;;;;;;1.77;1.00;;;27.50;47.30;;;;;;4970392;28;20195;-48
2022/03/06 06:31:01;;;;;;;1.13;0.88;;;27.50;47.30;;;;;;4970054;28;20288;-47
2022/03/06 06:33:32;;;;;;;2.42;1.02;;;27.50;47.20;;;;;;4970476;28;20277;-48
2022/03/06 06:36:03;;;;;;;1.00;0.82;;;27.50;47.20;;;;;;4970934;28;20205;-47
2022/03/06 06:38:40;;;;;;;1.65;0.80;;;27.50;47.10;;;;;;4970350;28;20253;-49
2022/03/06 06:41:11;;;;;;;1.45;1.00;;;27.50;47.10;;;;;;4970435;28;20202;-48
2022/03/06 06:43:42;;;;;;;1.40;1.10;;;27.50;47.30;;;;;;4970064;28;20222;-49
2022/03/06 06:46:13;;;;;;;1.95;0.98;;;27.50;47.30;;;;;;4982672;23;20284;-56
2022/03/06 06:48:44;;;;;;;1.05;0.95;;;27.50;47.40;;;;;;4970713;28;20194;-56
2022/03/06 06:51:14;;;;;;;1.38;0.93;;;27.50;47.20;;;;;;4970521;28;20674;-57
2022/03/06 06:53:47;;;;;;;0.95;0.80;;;27.50;46.90;;;;;;4969868;28;20741;-55
2022/03/06 06:56:17;;;;;;;1.80;1.10;;;27.50;46.60;;;;;;4970294;28;20236;-58
2022/03/06 06:58:48;;;;;;;1.40;1.00;;;27.40;46.60;;;;;;4969888;28;20253;-55
2022/03/06 07:01:19;;;;;;;1.20;0.90;;;27.40;46.50;;;;;;4969398;28;20198;-51
2022/03/06 07:03:50;;;;;;;1.35;1.00;;;27.40;46.40;;;;;;4969830;28;20222;-55
2022/03/06 07:06:21;;;;;;;1.92;1.08;;;27.40;46.30;;;;;;4970264;28;20234;-57
2022/03/06 07:08:54;;;;;;;1.98;1.10;;;27.40;46.50;;;;;;4971733;28;20666;-55
2022/03/06 07:11:24;;;;;;;1.42;1.17;;;27.40;46.10;;;;;;4952294;28;20219;-52
2022/03/06 07:13:55;;;;;;;1.00;0.70;;;27.30;46.40;;;;;;4954713;28;20223;-56
2022/03/06 07:16:25;;;;;;;2.75;1.10;;;27.30;46.60;;;;;;4954460;28;20255;-55
2022/03/06 07:18:56;;;;;;;1.33;1.00;;;27.30;46.60;;;;;;4954246;28;20209;-56
2022/03/06 07:21:26;;;;;;;2.00;1.05;;;27.30;46.70;;;;;;4950836;28;20199;-55
2022/03/06 07:23:59;;;;;;;1.70;1.10;;;27.30;46.40;;;;;;4951408;29;20239;-60
2022/03/06 07:26:29;;;;;;;1.23;0.95;;;27.20;46.40;;;;;;4950962;28;20199;-58
2022/03/06 07:29:00;;;;;;;1.20;0.88;;;27.20;46.40;;;;;;4949872;28;20229;-60
2022/03/06 07:31:31;;;;;;;1.50;1.08;;;27.20;46.50;;;;;;4948695;28;20226;-59
2022/03/06 07:34:02;;;;;;;1.10;1.00;;;27.20;46.50;;;;;;4949916;28;20223;-60
2022/03/06 07:36:32;;;;;;;1.00;0.90;;;27.10;46.50;;;;;;4950582;28;20319;-60
2022/03/06 07:39:05;;;;;;;1.42;1.10;;;27.10;46.50;;;;;;4949739;28;20594;-59
2022/03/06 07:41:36;;;;;;;2.15;1.10;;;27.20;46.50;;;;;;4950288;28;20877;-57
2022/03/06 07:44:06;;;;;;;1.60;1.00;;;27.10;47.10;;;;;;4948692;28;20203;-60
2022/03/06 07:59:50;;;;;;;2.33;1.35;;;27.00;46.20;;;;;;5355293;23;20623;-56
2022/03/06 08:02:31;;;;;;;1.85;1.30;;;26.90;46.20;;;;;;4953512;28;20571;-54
2022/03/06 08:05:10;;;;;;;1.88;0.95;;;26.90;46.30;;;;;;4967644;28;20566;-55
2022/03/06 08:07:46;;;;;;;1.38;1.13;;;26.90;46.40;;;;;;4967398;28;20680;-58
2022/03/06 08:10:17;;;;;;;1.48;0.95;;;26.90;46.40;;;;;;4967125;28;20698;-58
2022/03/06 08:12:50;;;;;;;1.65;1.13;;;26.80;46.50;;;;;;4968194;28;20257;-57
2022/03/06 08:15:22;;;;;;;1.60;1.00;;;26.80;47.10;;;;;;4969133;28;20199;-55
2022/03/06 08:17:53;;;;;;;1.50;0.90;;;26.80;46.60;;;;;;4969461;28;20253;-58
2022/03/06 08:20:23;;;;;;;2.88;1.17;;;26.70;46.60;;;;;;4968171;28;20261;-56
2022/03/06 08:22:54;;;;;;;1.80;0.93;;;26.70;46.70;;;;;;4967162;28;20226;-57
2022/03/06 08:25:24;;;;;;;1.33;1.20;;;26.70;46.80;;;;;;4968054;28;20234;-57
2022/03/06 08:27:55;;;;;;;1.48;1.17;;;26.70;46.80;;;;;;4967644;28;20248;-57
2022/03/06 08:30:27;;;;;;;2.13;1.13;;;26.70;46.80;;;;;;4968770;28;20226;-57
2022/03/06 08:32:58;;;;;;;1.40;1.17;;;26.60;46.80;;;;;;4968061;28;20285;-57
2022/03/06 08:35:29;;;;;;;1.52;1.23;;;26.60;47.20;;;;;;4968700;28;20202;-57
2022/03/06 08:38:00;;;;;;;2.08;1.30;;;26.60;46.60;;;;;;4968133;28;20202;-58
2022/03/06 08:40:31;;;;;;;1.25;1.13;;;26.60;46.60;;;;;;4968103;28;20202;-58
2022/03/06 08:43:01;;;;;;;1.70;1.23;;;26.60;46.60;;;;;;4968403;28;20218;-55
2022/03/06 08:45:34;;;;;;;1.70;1.13;;;26.50;46.40;;;;;;4967612;28;20686;-58
2022/03/06 08:48:05;;;;;;;1.83;1.20;;;26.50;46.20;;;;;;4964174;23;20241;-53
2022/03/06 08:50:35;;;;;;;1.30;1.20;;;26.50;46.40;;;;;;4950533;28;20231;-51
2022/03/06 08:53:06;;;;;;;1.98;1.38;;;26.50;46.40;;;;;;4961449;28;20740;-54
2022/03/06 08:55:37;;;;;;;1.75;1.10;;;26.50;46.40;;;;;;4968661;28;20190;-53
2022/03/06 08:58:07;;;;;;;1.60;1.17;;;26.40;46.40;;;;;;4965310;28;20222;-49
2022/03/06 09:00:40;;;;;;;1.30;1.10;;;26.40;46.40;;;;;;4954767;28;20202;-54
2022/03/06 09:03:11;;;;;;;2.05;1.23;;;26.40;46.50;;;;;;4958729;28;20859;-53
2022/03/06 09:05:42;;;;;;;1.30;0.95;;;26.40;46.50;;;;;;4959330;28;20191;-54
2022/03/06 09:08:13;;;;;;;1.20;1.10;;;26.30;46.60;;;;;;4958839;28;21103;-50
2022/03/06 09:10:44;;;;;;;1.23;1.10;;;26.30;46.70;;;;;;4957615;28;20250;-49
2022/03/06 09:13:14;;;;;;;1.20;1.10;;;26.30;46.70;;;;;;4959493;28;20694;-49
2022/03/06 09:15:47;;;;;;;1.48;1.15;;;26.30;46.60;;;;;;4957559;28;20289;-47
2022/03/06 09:18:17;;;;;;;1.60;1.08;;;26.20;46.40;;;;;;4958852;28;20257;-49
2022/03/06 09:20:48;;;;;;;1.15;0.90;;;26.20;46.40;;;;;;4959831;28;20198;-51
2022/03/06 09:23:18;;;;;;;2.00;1.27;;;26.20;46.30;;;;;;4961551;28;20269;-51
2022/03/06 09:25:49;;;;;;;1.55;1.30;;;26.20;46.30;;;;;;4968099;28;20249;-50
2022/03/06 09:28:20;;;;;;;1.25;1.00;;;26.20;46.30;;;;;;4960090;28;20608;-53
2022/03/06 09:30:52;;;;;;;1.20;1.10;;;26.20;46.60;;;;;;4958766;28;20219;-53
2022/03/06 09:33:23;;;;;;;1.35;1.20;;;26.10;46.70;;;;;;4961442;28;20210;-52
2022/03/06 09:35:54;;;;;;;3.17;1.30;;;26.10;46.80;;;;;;4961268;28;20276;-50
2022/03/06 09:38:24;;;;;;;1.58;1.20;;;26.10;46.60;;;;;;4960478;28;20191;-50
2022/03/06 09:40:57;;;;;;;1.30;1.20;;;26.10;46.70;;;;;;4959368;28;20352;-51
2022/03/06 09:43:28;;;;;;;1.17;1.13;;;26.00;46.50;;;;;;4961777;28;20257;-51
2022/03/06 09:48:30;;;;;;;1.48;1.00;;;26.00;46.60;;;;;;4943177;29;20206;-49
2022/03/06 09:51:02;;;;;;;1.27;1.17;;;26.00;46.60;;;;;;4942036;29;20281;-50
2022/03/06 09:53:33;;;;;;;1.25;1.10;;;25.90;46.50;;;;;;4939822;28;20267;-55
2022/03/06 09:56:04;;;;;;;1.40;1.30;;;25.90;46.60;;;;;;4940611;28;20636;-56
2022/03/06 09:58:34;;;;;;;1.08;1.08;;;25.90;46.70;;;;;;4941971;29;20191;-52
2022/03/06 10:01:05;;;;;;;1.10;1.10;;;25.80;46.60;;;;;;4941644;28;20199;-52
2022/03/06 10:03:39;;;;;;;1.30;1.20;;;25.80;46.60;;;;;;4936330;28;20694;-49
2022/03/06 10:06:09;;;;;;;2.35;1.45;;;25.80;46.60;;;;;;4937767;28;20199;-53
2022/03/06 10:08:40;;;;;;;1.67;0.95;;;25.80;46.60;;;;;;4938465;29;20188;-53
2022/03/06 10:11:13;;;;;;;2.53;1.23;;;25.80;46.60;;;;;;4939846;28;20238;-51
2022/03/06 10:13:45;;;;;;;1.20;1.10;;;25.80;46.70;;;;;;4940785;28;20222;-55
2022/03/06 10:16:17;;;;;;;1.27;1.20;;;25.70;46.60;;;;;;4935971;29;20436;-55
2022/03/06 10:18:51;;;;;;;1.42;1.25;;;25.70;46.70;;;;;;4939211;29;20246;-56
2022/03/06 10:21:24;;;;;;;1.20;1.10;;;25.70;46.70;;;;;;4938498;29;20191;-52
2022/03/06 10:23:57;;;;;;;1.10;1.00;;;25.60;46.70;;;;;;4939535;28;20216;-54
2022/03/06 10:26:29;;;;;;;1.02;1.02;;;25.60;46.70;;;;;;4939988;28;20191;-53
2022/03/06 10:29:01;;;;;;;1.27;1.15;;;25.60;46.80;;;;;;4941530;29;20191;-55
2022/03/06 10:31:36;;;;;;;1.33;1.23;;;25.60;46.90;;;;;;4950913;28;20234;-52
2022/03/06 10:34:10;;;;;;;1.15;1.10;;;25.60;46.90;;;;;;4937182;28;20829;-59
2022/03/06 10:36:43;;;;;;;1.60;1.20;;;25.50;47.10;;;;;;4932222;29;20210;-58
2022/03/06 10:39:19;;;;;;;1.45;1.23;;;25.50;46.90;;;;;;4922783;29;20208;-53
2022/03/06 10:41:51;;;;;;;1.50;1.10;;;25.50;47.00;;;;;;4932254;29;20286;-51
2022/03/06 10:44:22;;;;;;;1.45;1.13;;;25.50;47.00;;;;;;4935745;29;20208;-49
2022/03/06 10:55:00;;;;;;;1.33;1.20;;;25.40;47.00;;;;;;5602366;23;20257;-57
2022/03/06 10:57:31;;;;;;;1.10;1.00;;;25.30;47.00;;;;;;4973472;28;20206;-56
2022/03/06 11:00:02;;;;;;;1.10;1.00;;;25.30;47.00;;;;;;4973820;28;20276;-55
2022/03/06 11:02:35;;;;;;;1.20;1.10;;;25.30;46.90;;;;;;4973450;28;20229;-56
2022/03/06 11:05:07;;;;;;;1.20;1.10;;;25.30;47.00;;;;;;4973947;28;20225;-54
2022/03/06 11:07:38;;;;;;;1.45;1.10;;;25.30;47.00;;;;;;4974048;28;20202;-54
2022/03/06 11:10:12;;;;;;;1.88;1.13;;;25.20;47.00;;;;;;4973182;28;20229;-56
2022/03/06 11:12:43;;;;;;;1.25;1.13;;;25.20;47.00;;;;;;4969505;28;20705;-53
2022/03/06 11:15:14;;;;;;;1.20;1.10;;;25.20;47.00;;;;;;4973871;28;20269;-57
2022/03/06 11:17:45;;;;;;;1.33;1.20;;;25.10;47.00;;;;;;4973992;28;20234;-58
2022/03/06 11:20:16;;;;;;;1.38;1.27;;;25.10;47.00;;;;;;4973550;28;20241;-57
2022/03/06 11:22:54;;;;;;;1.02;1.02;;;25.10;47.10;;;;;;4973690;28;20226;-56
2022/03/06 11:25:29;;;;;;;1.30;1.20;;;25.10;47.10;;;;;;4973791;28;20205;-57
2022/03/06 11:28:11;;;;;;;1.08;0.98;;;25.10;47.20;;;;;;4973417;28;20200;-53
2022/03/06 11:30:42;;;;;;;0.95;0.95;;;25.10;47.30;;;;;;4973201;28;20252;-57
2022/03/06 11:33:14;;;;;;;1.15;1.05;;;25.00;47.30;;;;;;4972853;28;20229;-58
2022/03/06 11:35:46;;;;;;;1.63;1.20;;;25.00;47.40;;;;;;4972897;28;20565;-57
2022/03/06 11:38:20;;;;;;;1.17;1.08;;;25.00;47.40;;;;;;4973054;28;20260;-55
2022/03/06 11:40:55;;;;;;;1.50;1.13;;;24.90;47.50;;;;;;4973205;28;20280;-57
2022/03/06 11:43:38;;;;;;;1.10;1.10;;;25.00;47.60;;;;;;4972466;28;20708;-57
2022/03/06 11:46:20;;;;;;;1.13;1.02;;;24.90;47.50;;;;;;4973441;28;20261;-57
2022/03/06 11:49:15;;;;;;;1.20;1.10;;;24.90;47.50;;;;;;4972804;28;20715;-57
2022/03/06 11:51:47;;;;;;;1.30;1.10;;;24.90;47.50;;;;;;4972561;28;20225;-53
2022/03/06 11:54:24;;;;;;;1.25;1.15;;;24.90;47.50;;;;;;4971538;28;20213;-56
2022/03/06 11:57:06;;;;;;;1.20;1.10;;;24.80;47.50;;;;;;4972066;28;20655;-57
2022/03/06 11:59:49;;;;;;;1.58;1.17;;;24.80;47.50;;;;;;4973004;28;20253;-51
2022/03/06 12:02:21;;;;;;;1.15;1.05;;;24.80;47.60;;;;;;4972757;28;20591;-57
2022/03/06 12:04:56;;;;;;;1.77;1.02;;;24.80;48.20;;;;;;4973206;28;20194;-56
2022/03/06 12:07:28;;;;;;;1.10;1.00;;;24.70;47.50;;;;;;4969732;28;20245;-48
2022/03/06 12:09:59;;;;;;;1.10;1.00;;;24.70;47.60;;;;;;4972400;28;20663;-58
2022/03/06 12:12:31;;;;;;;1.25;1.10;;;24.70;47.60;;;;;;4971747;28;20284;-55
2022/03/06 12:15:13;;;;;;;1.13;1.05;;;24.70;47.60;;;;;;4973049;28;20659;-55
2022/03/06 12:17:44;;;;;;;1.10;1.00;;;24.70;47.70;;;;;;4972833;28;20658;-57
2022/03/06 12:20:29;;;;;;;1.90;1.20;;;24.60;47.60;;;;;;4972839;28;20249;-56
2022/03/06 12:23:04;;;;;;;1.63;1.00;;;24.60;47.70;;;;;;4972273;28;20289;-56
2022/03/06 12:25:36;;;;;;;1.45;1.33;;;24.60;47.80;;;;;;4971863;28;20209;-54
2022/03/06 12:28:42;;;;;;;1.52;1.13;;;24.60;47.80;;;;;;4971795;28;20265;-56
2022/03/06 12:31:39;;;;;;;1.20;1.10;;;24.50;47.80;;;;;;4972366;28;20202;-57
2022/03/06 12:34:38;;;;;;;1.50;1.10;;;24.50;47.90;;;;;;4972554;28;20194;-51
2022/03/06 12:37:09;;;;;;;1.10;1.00;;;24.50;47.90;;;;;;4972297;28;20197;-55
2022/03/06 12:39:41;;;;;;;1.20;1.10;;;24.50;47.90;;;;;;4972119;28;20273;-55
2022/03/06 12:42:11;;;;;;;1.25;1.10;;;24.50;47.90;;;;;;4972151;28;20229;-53
2022/03/06 12:44:49;;;;;;;1.13;1.02;;;24.50;47.90;;;;;;4971960;28;20245;-51
2022/03/06 12:47:20;;;;;;;0.90;0.90;;;24.40;47.80;;;;;;4972610;28;20194;-54
2022/03/06 12:49:52;;;;;;;1.25;1.10;;;24.40;47.90;;;;;;4972091;28;20725;-55
2022/03/06 12:52:24;;;;;;;1.23;1.02;;;24.40;47.90;;;;;;4971729;28;20229;-55
2022/03/06 12:54:55;;;;;;;1.10;1.00;;;24.40;47.90;;;;;;4971481;28;20268;-56
2022/03/06 12:57:30;;;;;;;1.15;0.98;;;24.40;47.90;;;;;;4971365;28;20663;-53
2022/03/06 13:00:03;;;;;;;2.00;1.15;;;24.40;47.80;;;;;;4971666;28;20205;-57
2022/03/06 13:02:34;;;;;;;0.82;0.80;;;24.30;47.80;;;;;;4952445;28;20274;-60
2022/03/06 13:05:05;;;;;;;1.25;1.10;;;24.40;47.90;;;;;;4952846;28;20199;-54
2022/03/06 13:07:36;;;;;;;1.23;1.10;;;24.30;47.90;;;;;;4961271;28;20192;-58
2022/03/06 13:10:08;;;;;;;1.08;0.98;;;24.30;48.00;;;;;;4971591;28;20249;-59
2022/03/06 13:12:42;;;;;;;0.98;0.95;;;24.30;48.00;;;;;;4971122;28;20236;-61
2022/03/06 13:15:23;;;;;;;1.77;1.00;;;24.30;48.00;;;;;;4971711;28;20595;-57
2022/03/06 13:17:59;;;;;;;1.15;1.05;;;24.30;48.00;;;;;;4971698;28;20253;-57
2022/03/06 13:20:33;;;;;;;1.05;0.90;;;24.30;48.10;;;;;;4972119;28;20197;-57
2022/03/06 13:23:05;;;;;;;1.02;0.98;;;24.30;48.10;;;;;;4971412;28;20225;-56
2022/03/06 13:25:37;;;;;;;1.17;1.05;;;24.20;48.10;;;;;;4970935;28;20202;-57
2022/03/06 13:28:10;;;;;;;1.23;1.13;;;24.20;48.20;;;;;;4970676;28;20212;-57
2022/03/06 13:30:43;;;;;;;1.10;1.00;;;24.20;48.10;;;;;;4971269;28;20357;-57
2022/03/06 13:33:20;;;;;;;1.17;1.05;;;24.20;48.20;;;;;;4970492;28;20241;-55
2022/03/06 13:35:51;;;;;;;1.48;1.10;;;24.20;48.10;;;;;;4971163;28;20236;-57
2022/03/06 13:38:30;;;;;;;0.90;0.90;;;24.20;48.20;;;;;;4971560;28;20205;-55
2022/03/06 13:41:13;;;;;;;1.13;1.02;;;24.20;48.80;;;;;;4971270;28;20283;-56